Strona główna
METAR-TAF:

METAR-TAF

Lotnisko :

Port lotniczy Marka

Amman, Jordania

Szerokość geograficzna: 31-59N, Długość geograficzna: 035-59E, wysokość: 767 m

Aktualna obserwacja pogody

Raport powstał 59 minut temu, godzina 21:00 UTC
Wiatr 3 kt od południowo-południowy zachód
Temperatura 12°C
Wilgotność 82%
Ciśnienie 1018 hPa
Widzialność: 6000 m

METAR: OJAM 062100Z 21003KT 6000 NSC 12/09 Q1018 NOSIG

czas: 00:59 (21:59 UTC)

Prognoza

Raport powstał 5 godziny i 9 minut temu, godzina 16:50 UTC
Prognoza ważna od 06 godzina 18 UTC do 07 godzina 24 UTC
Wiatr 2 kt z kierunków zmiennych
Widzialność: 5000 m
zmętnienie
Prawdopodobieństwo 40%
od 07 godzina 02 UTC do 07 godzina 05 UTC
Widzialność: 3000 m
zamglenie
Stopniowe zmiany
pomiędzy 07 i 00 UTC
Wiatr 10 kt od zachodnio-północny zachód
Widzialność: 6000 m
Mało chmury na wysokości 3500 ft

TAF: OJAM 061650Z 0618/0724 VRB02KT 5000 HZ NSC PROB40 0702/0705 3000 BR BECMG 07006/0708 29010KT 6000 FEW035

Obserwacja i prognoza pogody dla ponad 4000 lotnisk (raport METAR i TAF).

Dostępne stacje oznaczono żółtymi i czerwonymi punktami na mapie.

Najedź kursorem aby zobaczyć nazwę stacji.

Kliknij aby zobaczyć obserwacje i prognozy pogody.

Aby zmienić mapę: kliknij na zielony przycisk z czarnym krzyżykiem, aby powiększyć; na zielony przycisk z myślnikiem, aby pomniejszyć; na zielone strzałki, aby przejść do map sąsiednich.


METAR-TAF: